LSZH 210150Z AUTO 02006KT 2300 0150S R14/P2000N R16/P2000N R28/0800D R34/0400D BCFG FEW001 10/10 Q1024 TEMPO 0200 FG VV001 LSZH 210120Z AUTO 36004KT 0750 0200N R14/0450N R16/0800U R28/0900D R34/0650D FG VCFG FEW001 SCT004 09/09 Q1023 TEMPO 0200 FG VV001 LSZH 210050Z AUTO 07001KT 0750 0050N R14/0650N R16/0275D R28/P2000N R34/1000D PRFG FEW004 10/10 Q1023 TEMPO 0200 FG VV001 LSZH 210020Z AUTO VRB02KT 0600 0100N R14/0650N R16/0800U R28/1200D R34/1000U FG VCFG VV002 10/10 Q1023 TEMPO 0200 FG VV001 LSZH 202350Z AUTO 33003KT 0700 0200E R14/0650D R16/0700D R28/0800U R34/0700N FG VV002 11/11 Q1023 TEMPO 0200 VV001 LSZH 202320Z AUTO 35002KT 5000 0750N R14/P2000N R16/P2000N R28/P2000N R34/P2000N BCFG FEW002 12/11 Q1023 NOSIG LSZH 202250Z AUTO 32004KT 9999 FEW055 12/11 Q1023 NOSIG LSZH 202220Z AUTO 30002KT 9999 2800SE BKN050 BKN060 13/12 Q1023 NOSIG LSZH 202150Z AUTO 36003KT 9999 FEW047 SCT055 13/12 Q1023 NOSIG LSZH 202120Z 29002KT 8000 -SHRA FEW025 SCT040 BKN055 13/12 Q1022 NOSIG LSZH 202050Z VRB05KT 9999 -SHRA FEW030 BKN040 13/12 Q1022 BECMG NSW LSZH 202020Z VRB02KT 9999 FEW030 SCT045 BKN060 13/12 Q1022 TEMPO SHRA LSZH 201950Z 33005KT 9999 FEW030 BKN055 BKN075 12/12 Q1022 NOSIG LSZH 201920Z 03004KT 9999 FEW035 SCT055 13/12 Q1022 NOSIG LSZH 201850Z VRB02KT 9999 FEW045 13/12 Q1021 NOSIG LSZH 201820Z 03003KT 9999 FEW045 13/12 Q1021 NOSIG LSZH 201750Z VRB03KT 9999 FEW020 14/12 Q1020 NOSIG LSZH 201720Z VRB02KT 9999 FEW020 14/12 Q1020 NOSIG LSZH 201650Z 08001KT 9999 FEW020 15/12 Q1020 NOSIG LSZH 201620Z VRB01KT 9999 FEW018 16/12 Q1020 NOSIG LSZH 201550Z VRB02KT 9999 FEW018 16/12 Q1019 NOSIG LSZH 201520Z 04004KT 020V110 9999 FEW018 16/12 Q1019 NOSIG LSZH 201450Z 02003KT 330V080 9999 FEW018 16/12 Q1019 NOSIG LSZH 201420Z VRB02KT 9999 FEW018 SCT035 16/11 Q1019 NOSIG LSZH 201350Z VRB02KT 9999 FEW014 SCT034 BKN038 16/11 Q1019 NOSIG LSZH 201320Z VRB03KT 9999 FEW014 SCT032 BKN040 15/11 Q1019 NOSIG LSZH 201250Z VRB02KT 9999 FEW012 BKN030 15/11 Q1019 NOSIG LSZH 201220Z 33005KT 9999 FEW012 SCT018 BKN033 14/11 Q1019 NOSIG LSZH 201150Z VRB01KT 9999 FEW012 SCT018 BKN032 15/11 Q1019 NOSIG LSZH 201120Z VRB03KT 9999 FEW010 SCT015 BKN030 14/11 Q1019 NOSIG LSZH 201050Z VRB03KT 9999 FEW005 SCT012 BKN025 14/12 Q1019 NOSIG LSZH 201020Z VRB02KT 7000 -DZ FEW004 SCT012 BKN025 14/12 Q1019 NOSIG LSZH 200950Z VRB02KT 5000 -RADZ FEW004 SCT012 BKN020 13/12 Q1019 TEMPO 4000 BKN012 LSZH 200920Z VRB01KT 5000 2000N -RADZ FEW004 SCT008 BKN016 13/11 Q1019 TEMPO BKN012 LSZH 200850Z VRB01KT 5000 -DZ BR FEW004 SCT006 BKN015 12/11 Q1019 TEMPO BKN012 LSZH 200820Z VRB01KT 4000 -RA BR SCT003 SCT007 BKN018 12/11 Q1019 REDZ TEMPO BKN014 LSZH 200750Z 00000KT 3600 DZRA FEW002 SCT005 BKN014 12/11 Q1019 TEMPO BKN016 LSZH 200720Z VRB01KT 3600 -DZ FEW002 SCT003 BKN014 12/11 Q1018 TEMPO 5000 BKN016 LSZH 200650Z VRB01KT 4000 1800N -DZ FEW002 SCT005 BKN012 12/11 Q1018 REDZRA TEMPO 5000 BKN009 LSZH 200620Z 16001KT 4000 DZRA FEW003 SCT007 OVC011 12/11 Q1018 TEMPO 5000 OVC015 LSZH 200550Z 23001KT 6000 -DZ FEW004 SCT009 OVC015 12/11 Q1018 TEMPO OVC012 LSZH 200520Z 21002KT 9000 FEW003 SCT010 OVC012 12/11 Q1018 TEMPO OVC015 LSZH 200450Z 17003KT 8000 FEW004 SCT009 BKN012 12/11 Q1018 TEMPO BKN015 LSZH 200420Z 18003KT 7000 -RADZ FEW003 SCT005 BKN010 11/11 Q1018 TEMPO BKN009 LSZH 200350Z 18002KT 6000 -RADZ FEW004 BKN009 11/11 Q1018 TEMPO BKN010 LSZH 200320Z AUTO 20002KT 9999 -DZRA FEW004 BKN010 11/11 Q1018 NOSIG LSZH 200250Z AUTO 17002KT 9999 -DZ FEW003 SCT005 BKN010 11/11 Q1018 NOSIG LSZH 200220Z AUTO 15002KT 8000 -RADZ FEW003 SCT005 BKN010 11/11 Q1018 NOSIG LSZH 200150Z AUTO 18003KT 7000 -RA SCT003 SCT009 11/11 Q1018 REDZ NOSIG LSZH 200120Z AUTO 15002KT 9999 -DZRA FEW004 BKN009 BKN016 11/11 Q1018 REDZ NOSIG LSZH 200050Z AUTO VRB02KT 9999 -DZ FEW004 SCT006 BKN009 11/11 Q1018 NOSIG LSZH 200020Z AUTO VRB02KT 9999 -DZ FEW004 BKN006 11/11 Q1018 NOSIG LSZH 192350Z AUTO 20002KT 9000 3300E -RADZ FEW003 BKN005 11/11 Q1018 REDZ NOSIG LSZH 192320Z AUTO 18003KT 9999 4400S DZRA FEW003 SCT005 BKN008 11/11 Q1018 REDZ NOSIG LSZH 192250Z AUTO 17004KT 5000 2000S -RA SCT003 SCT005 BKN007 11/11 Q1018 NOSIG LSZH 192220Z AUTO 17003KT 6000 2400N -RADZ SCT003 BKN009 11/10 Q1018 TEMPO BKN010 LSZH 192150Z AUTO 16003KT 6000 -RADZ SCT011 SCT015 BKN018 11/10 Q1018 TEMPO BKN014 LSZH 192120Z 18004KT 140V240 9999 -RADZ FEW010 SCT014 BKN025 11/10 Q1018 TEMPO BKN014 LSZH 192050Z 19005KT 9999 FEW010 SCT020 BKN030 11/10 Q1018 NOSIG LSZH 192020Z 18003KT 9999 -RA FEW012 SCT025 BKN035 11/10 Q1018 NOSIG LSZH 191950Z 18003KT 7000 -RA FEW012 SCT025 BKN040 11/10 Q1018 NOSIG LSZH 191920Z VRB03KT 7000 -RA FEW014 BKN045 11/10 Q1017 TEMPO RA LSZH 191850Z 17005KT 7000 -RA FEW015 SCT025 BKN045 11/10 Q1017 RERA TEMPO RA LSZH 191820Z 17004KT 8000 RA FEW015 SCT025 BKN045 11/09 Q1017 NOSIG LSZH 191750Z VRB03KT 9999 -RA FEW015 SCT025 BKN060 11/09 Q1017 TEMPO RA LSZH 191720Z 19004KT 160V230 9999 -RA FEW015 BKN065 11/09 Q1017 TEMPO RA LSZH 191650Z 20005KT 160V240 9000 -RA FEW011 BKN065 11/09 Q1017 TEMPO RA LSZH 191620Z 18005KT 9000 -RA FEW011 BKN065 11/09 Q1016 RERA TEMPO RA LSZH 191550Z 19005KT 160V230 9000 RA FEW011 SCT030 BKN065 11/09 Q1016 NOSIG LSZH 191520Z 18004KT 150V210 7000 RA FEW011 SCT030 BKN065 11/09 Q1016 NOSIG LSZH 191450Z 19005KT 140V240 9000 -RA FEW009 SCT020 BKN055 11/09 Q1016 RERA TEMPO RA LSZH 191420Z 20006KT 160V230 7000 RA FEW009 SCT020 BKN055 11/10 Q1016 NOSIG

METAR Messwerte

Zurück zur Übersicht

Ort
m ü. NN
Zeit Temperatur Taupunkt Rel.
Luftfeuchte
Luftdruck:
Altimeter
NN
Station
Wind in Beaufort
(Knoten)
Sichtweite
(Meter)
Wolken
(Meter über Grund)
Wettererscheinung
Zürich-Kloten
432
Di 21.09. 03:501010100 %1024
1025
973
NNO 2 (6)2300Leicht bewölkt (30)Nebel-Bänke
Bald möglich: Nebel
Zürich-Kloten
432
Di 21.09. 03:2099100 %1023
1024
972
N 2 (4)750Wolkig (120)
Leicht bewölkt (30)
Nebel
Nebel
Bald möglich: Nebel
Zürich-Kloten
432
Di 21.09. 02:501010100 %1023
1024
972
ONO 1 (1)750Leicht bewölkt (120)Nebel-Schwaden
Bald möglich: Nebel
Zürich-Kloten
432
Di 21.09. 02:201010100 %1023
1024
972
Uml 1 (2)600 Nebel
Nebel
Bald möglich: Nebel
Zürich-Kloten
432
Di 21.09. 01:501111100 %1023
1024
972
NNW 2 (3)700 Nebel
Zürich-Kloten
432
Di 21.09. 01:20121194 %1023
1024
972
N 1 (2)5000Leicht bewölkt (61)Nebel-Bänke
Zürich-Kloten
432
Di 21.09. 00:50121194 %1023
1024
972
NW 2 (4)>= 10000Leicht bewölkt (1700) 
Zürich-Kloten
432
Di 21.09. 00:20131294 %1023
1023
972
WNW 1 (2)>= 10000Stark bewölkt (1800)
Stark bewölkt (1500)
 
Zürich-Kloten
432
Mo 20.09. 23:50131294 %1023
1023
972
N 2 (3)>= 10000Wolkig (1700)
Leicht bewölkt (1400)
 
Zürich-Kloten
432
Mo 20.09. 23:20131294 %1022
1022
971
WNW 1 (2)8000Stark bewölkt (1700)
Wolkig (1200)
Leicht bewölkt (760)
Regen-Schauer (schwach)
Zürich-Kloten
432
Mo 20.09. 22:50131294 %1022
1022
971
Uml 2 (5)>= 10000Stark bewölkt (1200)
Leicht bewölkt (910)
Regen-Schauer (schwach)
Zürich-Kloten
432
Mo 20.09. 22:20131294 %1022
1022
971
Uml 1 (2)>= 10000Stark bewölkt (1800)
Wolkig (1400)
Leicht bewölkt (910)
 Bald möglich: Regen-Schauer
Zürich-Kloten
432
Mo 20.09. 21:501212100 %1022
1023
971
NNW 2 (5)>= 10000Stark bewölkt (2300)
Stark bewölkt (1700)
Leicht bewölkt (910)
 
Zürich-Kloten
432
Mo 20.09. 21:20131294 %1022
1022
971
NNO 2 (4)>= 10000Wolkig (1700)
Leicht bewölkt (1100)
 
Zürich-Kloten
432
Mo 20.09. 20:50131294 %1021
1021
970
Uml 1 (2)>= 10000Leicht bewölkt (1400) 
Zürich-Kloten
432
Mo 20.09. 20:20131294 %1021
1021
970
NNO 2 (3)>= 10000Leicht bewölkt (1400) 
Zürich-Kloten
432
Mo 20.09. 19:50141288 %1020
1020
969
Uml 2 (3)>= 10000Leicht bewölkt (610) 
Zürich-Kloten
432
Mo 20.09. 19:20141288 %1020
1020
969
Uml 1 (2)>= 10000Leicht bewölkt (610) 
Zürich-Kloten
432
Mo 20.09. 18:50151282 %1020
1020
969
O 1 (1)>= 10000Leicht bewölkt (610) 
Zürich-Kloten
432
Mo 20.09. 18:20161277 %1020
1020
969
Uml 1 (1)>= 10000Leicht bewölkt (550) 
Zürich-Kloten
432
Mo 20.09. 17:50161277 %1019
1019
968
Uml 1 (2)>= 10000Leicht bewölkt (550) 
Zürich-Kloten
432
Mo 20.09. 17:20161277 %1019
1019
968
NO 2 (4)
NNO - OSO
>= 10000Leicht bewölkt (550) 
Zürich-Kloten
432
Mo 20.09. 16:50161277 %1019
1019
968
NNO 2 (3)
NNW - O
>= 10000Leicht bewölkt (550) 
Zürich-Kloten
432
Mo 20.09. 16:20161172 %1019
1019
968
Uml 1 (2)>= 10000Wolkig (1100)
Leicht bewölkt (550)
 
Zürich-Kloten
432
Mo 20.09. 15:50161172 %1019
1019
968
Uml 1 (2)>= 10000Stark bewölkt (1200)
Wolkig (1000)
Leicht bewölkt (430)
 
Zürich-Kloten
432
Mo 20.09. 15:20151177 %1019
1019
968
Uml 2 (3)>= 10000Stark bewölkt (1200)
Wolkig (980)
Leicht bewölkt (430)
 
Zürich-Kloten
432
Mo 20.09. 14:50151177 %1019
1019
968
Uml 1 (2)>= 10000Stark bewölkt (910)
Leicht bewölkt (370)
 
Zürich-Kloten
432
Mo 20.09. 14:20141182 %1019
1019
968
NNW 2 (5)>= 10000Stark bewölkt (1000)
Wolkig (550)
Leicht bewölkt (370)
 
Zürich-Kloten
432
Mo 20.09. 13:50151177 %1019
1019
968
Uml 1 (1)>= 10000Stark bewölkt (980)
Wolkig (550)
Leicht bewölkt (370)
 
Zürich-Kloten
432
Mo 20.09. 13:20141182 %1019
1019
968
Uml 2 (3)>= 10000Stark bewölkt (910)
Wolkig (460)
Leicht bewölkt (300)
 
Zürich-Kloten
432
Mo 20.09. 12:50141288 %1019
1019
968
Uml 2 (3)>= 10000Stark bewölkt (760)
Wolkig (370)
Leicht bewölkt (150)
 
Zürich-Kloten
432
Mo 20.09. 12:20141288 %1019
1019
968
Uml 1 (2)7000Stark bewölkt (760)
Wolkig (370)
Leicht bewölkt (120)
Nieselregen (schwach)
Zürich-Kloten
432
Mo 20.09. 11:50131294 %1019
1019
968
Uml 1 (2)5000Stark bewölkt (610)
Wolkig (370)
Leicht bewölkt (120)
Regen/Nieselregen (schwach)
Zürich-Kloten
432
Mo 20.09. 11:20131188 %1019
1019
968
Uml 1 (1)5000Stark bewölkt (490)
Wolkig (240)
Leicht bewölkt (120)
Regen/Nieselregen (schwach)
Zürich-Kloten
432
Mo 20.09. 10:50121194 %1019
1020
968
Uml 1 (1)5000Stark bewölkt (460)
Wolkig (180)
Leicht bewölkt (120)
Nieselregen (schwach)
Nebeldunst
Zürich-Kloten
432
Mo 20.09. 10:20121194 %1019
1020
968
Uml 1 (1)4000Stark bewölkt (550)
Wolkig (210)
Wolkig (91)
Regen (schwach)
Nebeldunst
Zürich-Kloten
432
Mo 20.09. 09:50121194 %1019
1020
968
Windstill3600Stark bewölkt (430)
Wolkig (150)
Leicht bewölkt (61)
Nieselregen/Regen
Zürich-Kloten
432
Mo 20.09. 09:20121194 %1018
1019
967
Uml 1 (1)3600Stark bewölkt (430)
Wolkig (91)
Leicht bewölkt (61)
Nieselregen (schwach)
Zürich-Kloten
432
Mo 20.09. 08:50121194 %1018
1019
967
Uml 1 (1)4000Stark bewölkt (370)
Wolkig (150)
Leicht bewölkt (61)
Nieselregen (schwach)
Zürich-Kloten
432
Mo 20.09. 08:20121194 %1018
1019
967
SSO 1 (1)4000Bedeckt (340)
Wolkig (210)
Leicht bewölkt (91)
Nieselregen/Regen
Zürich-Kloten
432
Mo 20.09. 07:50121194 %1018
1019
967
SW 1 (1)6000Bedeckt (460)
Wolkig (270)
Leicht bewölkt (120)
Nieselregen (schwach)
Zürich-Kloten
432
Mo 20.09. 07:20121194 %1018
1019
967
SSW 1 (2)9000Bedeckt (370)
Wolkig (300)
Leicht bewölkt (91)
 
Zürich-Kloten
432
Mo 20.09. 06:50121194 %1018
1019
967
S 2 (3)8000Stark bewölkt (370)
Wolkig (270)
Leicht bewölkt (120)
 
Zürich-Kloten
432
Mo 20.09. 06:201111100 %1018
1019
967
S 2 (3)7000Stark bewölkt (300)
Wolkig (150)
Leicht bewölkt (91)
Regen/Nieselregen (schwach)
Zürich-Kloten
432
Mo 20.09. 05:501111100 %1018
1019
967
S 1 (2)6000Stark bewölkt (270)
Leicht bewölkt (120)
Regen/Nieselregen (schwach)
Zürich-Kloten
432
Mo 20.09. 05:201111100 %1018
1019
967
SSW 1 (2)>= 10000Stark bewölkt (300)
Leicht bewölkt (120)
Nieselregen/Regen (schwach)
Zürich-Kloten
432
Mo 20.09. 04:501111100 %1018
1019
967
S 1 (2)>= 10000Stark bewölkt (300)
Wolkig (150)
Leicht bewölkt (91)
Nieselregen (schwach)
Zürich-Kloten
432
Mo 20.09. 04:201111100 %1018
1019
967
SSO 1 (2)8000Stark bewölkt (300)
Wolkig (150)
Leicht bewölkt (91)
Regen/Nieselregen (schwach)
Zürich-Kloten
432
Mo 20.09. 03:501111100 %1018
1019
967
S 2 (3)7000Wolkig (270)
Wolkig (91)
Regen (schwach)
Zürich-Kloten
432
Mo 20.09. 03:201111100 %1018
1019
967
SSO 1 (2)>= 10000Stark bewölkt (490)
Stark bewölkt (270)
Leicht bewölkt (120)
Nieselregen/Regen (schwach)
Zürich-Kloten
432
Mo 20.09. 02:501111100 %1018
1019
967
Uml 1 (2)>= 10000Stark bewölkt (270)
Wolkig (180)
Leicht bewölkt (120)
Nieselregen (schwach)
Zürich-Kloten
432
Mo 20.09. 02:201111100 %1018
1019
967
Uml 1 (2)>= 10000Stark bewölkt (180)
Leicht bewölkt (120)
Nieselregen (schwach)
Zürich-Kloten
432
Mo 20.09. 01:501111100 %1018
1019
967
SSW 1 (2)9000Stark bewölkt (150)
Leicht bewölkt (91)
Regen/Nieselregen (schwach)
Zürich-Kloten
432
Mo 20.09. 01:201111100 %1018
1019
967
S 2 (3)>= 10000Stark bewölkt (240)
Wolkig (150)
Leicht bewölkt (91)
Nieselregen/Regen
Zürich-Kloten
432
Mo 20.09. 00:501111100 %1018
1019
967
S 2 (4)5000Stark bewölkt (210)
Wolkig (150)
Wolkig (91)
Regen (schwach)
Zürich-Kloten
432
Mo 20.09. 00:20111094 %1018
1019
967
S 2 (3)6000Stark bewölkt (270)
Wolkig (91)
Regen/Nieselregen (schwach)
Zürich-Kloten
432
So 19.09. 23:50111094 %1018
1019
967
SSO 2 (3)6000Stark bewölkt (550)
Wolkig (460)
Wolkig (340)
Regen/Nieselregen (schwach)
Zürich-Kloten
432
So 19.09. 23:20111094 %1018
1019
967
S 2 (4)
SO - WSW
>= 10000Stark bewölkt (760)
Wolkig (430)
Leicht bewölkt (300)
Regen/Nieselregen (schwach)
Zürich-Kloten
432
So 19.09. 22:50111094 %1018
1019
967
S 2 (5)>= 10000Stark bewölkt (910)
Wolkig (610)
Leicht bewölkt (300)
 
Zürich-Kloten
432
So 19.09. 22:20111094 %1018
1019
967
S 2 (3)>= 10000Stark bewölkt (1100)
Wolkig (760)
Leicht bewölkt (370)
Regen (schwach)
Zürich-Kloten
432
So 19.09. 21:50111094 %1018
1019
967
S 2 (3)7000Stark bewölkt (1200)
Wolkig (760)
Leicht bewölkt (370)
Regen (schwach)
Zürich-Kloten
432
So 19.09. 21:20111094 %1017
1018
966
Uml 2 (3)7000Stark bewölkt (1400)
Leicht bewölkt (430)
Regen (schwach)
Bald möglich: Regen
Zürich-Kloten
432
So 19.09. 20:50111094 %1017
1018
966
S 2 (5)7000Stark bewölkt (1400)
Wolkig (760)
Leicht bewölkt (460)
Regen (schwach)
Bald möglich: Regen
Zürich-Kloten
432
So 19.09. 20:2011987 %1017
1018
966
S 2 (4)8000Stark bewölkt (1400)
Wolkig (760)
Leicht bewölkt (460)
Regen
Zürich-Kloten
432
So 19.09. 19:5011987 %1017
1018
966
Uml 2 (3)>= 10000Stark bewölkt (1800)
Wolkig (760)
Leicht bewölkt (460)
Regen (schwach)
Bald möglich: Regen
Zürich-Kloten
432
So 19.09. 19:2011987 %1017
1018
966
S 2 (4)
SSO - SW
>= 10000Stark bewölkt (2000)
Leicht bewölkt (460)
Regen (schwach)
Bald möglich: Regen
Zürich-Kloten
432
So 19.09. 18:5011987 %1017
1018
966
SSW 2 (5)
SSO - WSW
9000Stark bewölkt (2000)
Leicht bewölkt (340)
Regen (schwach)
Bald möglich: Regen
Zürich-Kloten
432
So 19.09. 18:2011987 %1016
1017
965
S 2 (5)9000Stark bewölkt (2000)
Leicht bewölkt (340)
Regen (schwach)
Bald möglich: Regen
Zürich-Kloten
432
So 19.09. 17:5011987 %1016
1017
965
S 2 (5)
SSO - SW
9000Stark bewölkt (2000)
Wolkig (910)
Leicht bewölkt (340)
Regen
Zürich-Kloten
432
So 19.09. 17:2011987 %1016
1017
965
S 2 (4)
SSO - SSW
7000Stark bewölkt (2000)
Wolkig (910)
Leicht bewölkt (340)
Regen
Zürich-Kloten
432
So 19.09. 16:5011987 %1016
1017
965
S 2 (5)
SO - WSW
9000Stark bewölkt (1700)
Wolkig (610)
Leicht bewölkt (270)
Regen (schwach)
Bald möglich: Regen
Zürich-Kloten
432
So 19.09. 16:20111094 %1016
1017
965
SSW 2 (6)
SSO - SW
7000Stark bewölkt (1700)
Wolkig (610)
Leicht bewölkt (270)
Regen

Altimeter: Einstellung am Altimeter (Höhenmesser), die Höhe 0 muss auf diesen Luftdruckwert zeigen, damit das Gerät die Stationshöhe richtig anzeigt.

NN: Luftdruck reduziert auf "Normal Null", auf Meereshöhe, dieser von der Temperatur abhängige Wert wird bisweilen unkorrekt einfach als "Luftdruck" bezeichnet. Eigentlich nur eine fiktive Größe, die es erlaubt, Stationen auf unterschiedlichen Höhen miteinander zu vergleichen.

Station: Realer Luftdruck an der Station.